sensor_id;sensor_type;location;lat;lon;timestamp;P1;durP1;ratioP1;P2;durP2;ratioP2
22034;SDS011;11181;51.002;4.356;2023-02-28T00:00:29;8.10;;;5.10;;
22034;SDS011;11181;51.002;4.356;2023-02-28T00:02:57;6.03;;;4.60;;
22034;SDS011;11181;51.002;4.356;2023-02-28T00:05:26;7.67;;;5.00;;
22034;SDS011;11181;51.002;4.356;2023-02-28T00:07:54;6.83;;;4.60;;
22034;SDS011;11181;51.002;4.356;2023-02-28T00:10:22;6.73;;;4.33;;
22034;SDS011;11181;51.002;4.356;2023-02-28T00:12:51;9.80;;;4.80;;
22034;SDS011;11181;51.002;4.356;2023-02-28T00:15:22;6.83;;;4.77;;
22034;SDS011;11181;51.002;4.356;2023-02-28T00:17:49;8.23;;;5.00;;
22034;SDS011;11181;51.002;4.356;2023-02-28T00:20:17;6.50;;;4.53;;
22034;SDS011;11181;51.002;4.356;2023-02-28T00:22:47;6.70;;;5.33;;
22034;SDS011;11181;51.002;4.356;2023-02-28T00:25:16;11.40;;;4.43;;
22034;SDS011;11181;51.002;4.356;2023-02-28T00:27:44;5.93;;;4.87;;
22034;SDS011;11181;51.002;4.356;2023-02-28T00:30:13;8.03;;;5.10;;
22034;SDS011;11181;51.002;4.356;2023-02-28T00:32:41;6.77;;;4.90;;
22034;SDS011;11181;51.002;4.356;2023-02-28T00:35:08;7.90;;;5.57;;
22034;SDS011;11181;51.002;4.356;2023-02-28T00:37:36;9.10;;;5.67;;
22034;SDS011;11181;51.002;4.356;2023-02-28T00:40:05;7.53;;;5.03;;
22034;SDS011;11181;51.002;4.356;2023-02-28T00:42:34;8.63;;;5.97;;
22034;SDS011;11181;51.002;4.356;2023-02-28T00:45:01;8.70;;;5.60;;
22034;SDS011;11181;51.002;4.356;2023-02-28T00:47:29;9.63;;;5.73;;
22034;SDS011;11181;51.002;4.356;2023-02-28T00:49:56;12.20;;;5.73;;
22034;SDS011;11181;51.002;4.356;2023-02-28T00:52:23;10.07;;;5.93;;
22034;SDS011;11181;51.002;4.356;2023-02-28T00:54:50;6.07;;;5.13;;
22034;SDS011;11181;51.002;4.356;2023-02-28T00:57:19;8.87;;;5.20;;
22034;SDS011;11181;51.002;4.356;2023-02-28T00:59:45;8.47;;;5.30;;
22034;SDS011;11181;51.002;4.356;2023-02-28T01:02:12;9.93;;;5.90;;
22034;SDS011;11181;51.002;4.356;2023-02-28T01:04:39;9.37;;;5.43;;
22034;SDS011;11181;51.002;4.356;2023-02-28T01:07:06;9.60;;;6.00;;
22034;SDS011;11181;51.002;4.356;2023-02-28T01:09:33;8.60;;;6.30;;
22034;SDS011;11181;51.002;4.356;2023-02-28T01:12:00;10.10;;;6.23;;
22034;SDS011;11181;51.002;4.356;2023-02-28T01:14:28;9.70;;;6.20;;
22034;SDS011;11181;51.002;4.356;2023-02-28T01:16:55;9.67;;;6.17;;
22034;SDS011;11181;51.002;4.356;2023-02-28T01:19:22;10.03;;;6.23;;
22034;SDS011;11181;51.002;4.356;2023-02-28T01:21:49;7.47;;;5.10;;
22034;SDS011;11181;51.002;4.356;2023-02-28T01:24:16;9.03;;;5.67;;
22034;SDS011;11181;51.002;4.356;2023-02-28T01:26:43;15.63;;;5.83;;
22034;SDS011;11181;51.002;4.356;2023-02-28T01:29:10;8.30;;;5.63;;
22034;SDS011;11181;51.002;4.356;2023-02-28T01:31:38;9.70;;;6.37;;
22034;SDS011;11181;51.002;4.356;2023-02-28T01:34:05;8.90;;;5.97;;
22034;SDS011;11181;51.002;4.356;2023-02-28T01:36:32;7.87;;;5.07;;
22034;SDS011;11181;51.002;4.356;2023-02-28T01:39:00;8.50;;;5.77;;
22034;SDS011;11181;51.002;4.356;2023-02-28T01:41:28;6.73;;;5.27;;
22034;SDS011;11181;51.002;4.356;2023-02-28T01:44:01;13.07;;;6.03;;
22034;SDS011;11181;51.002;4.356;2023-02-28T01:46:31;11.10;;;5.73;;
22034;SDS011;11181;51.002;4.356;2023-02-28T01:49:11;9.10;;;6.33;;
22034;SDS011;11181;51.002;4.356;2023-02-28T01:51:40;7.70;;;5.83;;
22034;SDS011;11181;51.002;4.356;2023-02-28T01:54:12;10.23;;;6.80;;
22034;SDS011;11181;51.002;4.356;2023-02-28T01:56:43;8.87;;;5.87;;
22034;SDS011;11181;51.002;4.356;2023-02-28T01:59:14;13.07;;;6.27;;
22034;SDS011;11181;51.002;4.356;2023-02-28T02:01:47;9.47;;;6.67;;
22034;SDS011;11181;51.002;4.356;2023-02-28T02:04:15;10.33;;;7.33;;
22034;SDS011;11181;51.002;4.356;2023-02-28T02:06:43;8.47;;;6.10;;
22034;SDS011;11181;51.002;4.356;2023-02-28T02:09:12;11.63;;;6.00;;
22034;SDS011;11181;51.002;4.356;2023-02-28T02:11:39;11.20;;;6.00;;
22034;SDS011;11181;51.002;4.356;2023-02-28T02:17:18;9.13;;;6.07;;
22034;SDS011;11181;51.002;4.356;2023-02-28T02:20:16;7.97;;;5.83;;
22034;SDS011;11181;51.002;4.356;2023-02-28T02:26:20;7.80;;;5.47;;
22034;SDS011;11181;51.002;4.356;2023-02-28T02:32:26;8.97;;;5.70;;
22034;SDS011;11181;51.002;4.356;2023-02-28T02:35:12;8.40;;;6.50;;
22034;SDS011;11181;51.002;4.356;2023-02-28T02:37:43;10.53;;;5.77;;
22034;SDS011;11181;51.002;4.356;2023-02-28T02:40:16;9.40;;;6.20;;
22034;SDS011;11181;51.002;4.356;2023-02-28T02:42:47;9.80;;;6.30;;
22034;SDS011;11181;51.002;4.356;2023-02-28T02:45:22;13.33;;;6.80;;
22034;SDS011;11181;51.002;4.356;2023-02-28T02:47:52;17.80;;;6.47;;
22034;SDS011;11181;51.002;4.356;2023-02-28T02:50:24;13.83;;;6.53;;
22034;SDS011;11181;51.002;4.356;2023-02-28T02:52:56;8.80;;;6.53;;
22034;SDS011;11181;51.002;4.356;2023-02-28T02:55:26;11.37;;;7.10;;
22034;SDS011;11181;51.002;4.356;2023-02-28T02:57:54;12.07;;;6.97;;
22034;SDS011;11181;51.002;4.356;2023-02-28T03:00:26;9.07;;;6.60;;
22034;SDS011;11181;51.002;4.356;2023-02-28T03:02:57;9.10;;;6.43;;
22034;SDS011;11181;51.002;4.356;2023-02-28T03:05:27;11.37;;;6.77;;
22034;SDS011;11181;51.002;4.356;2023-02-28T03:07:58;9.33;;;6.07;;
22034;SDS011;11181;51.002;4.356;2023-02-28T03:10:35;10.63;;;6.47;;
22034;SDS011;11181;51.002;4.356;2023-02-28T03:13:08;13.20;;;7.13;;
22034;SDS011;11181;51.002;4.356;2023-02-28T03:15:50;8.07;;;6.30;;
22034;SDS011;11181;51.002;4.356;2023-02-28T03:18:26;11.50;;;6.57;;
22034;SDS011;11181;51.002;4.356;2023-02-28T03:21:04;10.43;;;6.87;;
22034;SDS011;11181;51.002;4.356;2023-02-28T03:23:38;9.37;;;6.13;;
22034;SDS011;11181;51.002;4.356;2023-02-28T03:26:12;11.87;;;6.13;;
22034;SDS011;11181;51.002;4.356;2023-02-28T03:28:47;12.90;;;6.40;;
22034;SDS011;11181;51.002;4.356;2023-02-28T03:31:22;10.63;;;6.40;;
22034;SDS011;11181;51.002;4.356;2023-02-28T03:33:57;15.10;;;7.10;;
22034;SDS011;11181;51.002;4.356;2023-02-28T03:36:33;8.50;;;5.30;;
22034;SDS011;11181;51.002;4.356;2023-02-28T03:39:09;7.97;;;5.97;;
22034;SDS011;11181;51.002;4.356;2023-02-28T03:41:41;12.30;;;5.80;;
22034;SDS011;11181;51.002;4.356;2023-02-28T03:44:15;8.40;;;5.50;;
22034;SDS011;11181;51.002;4.356;2023-02-28T03:46:47;8.53;;;5.93;;
22034;SDS011;11181;51.002;4.356;2023-02-28T03:49:20;11.67;;;6.03;;
22034;SDS011;11181;51.002;4.356;2023-02-28T03:51:52;8.67;;;6.13;;
22034;SDS011;11181;51.002;4.356;2023-02-28T03:54:22;8.67;;;5.73;;
22034;SDS011;11181;51.002;4.356;2023-02-28T03:56:53;10.40;;;5.87;;
22034;SDS011;11181;51.002;4.356;2023-02-28T03:59:25;8.40;;;5.77;;
22034;SDS011;11181;51.002;4.356;2023-02-28T04:01:54;15.60;;;7.27;;
22034;SDS011;11181;51.002;4.356;2023-02-28T04:04:23;8.90;;;5.80;;
22034;SDS011;11181;51.002;4.356;2023-02-28T04:06:52;8.43;;;5.60;;
22034;SDS011;11181;51.002;4.356;2023-02-28T04:09:26;29.13;;;6.40;;
22034;SDS011;11181;51.002;4.356;2023-02-28T04:11:53;10.93;;;6.63;;
22034;SDS011;11181;51.002;4.356;2023-02-28T04:14:21;10.10;;;5.80;;
22034;SDS011;11181;51.002;4.356;2023-02-28T04:16:48;11.43;;;5.90;;
22034;SDS011;11181;51.002;4.356;2023-02-28T04:19:17;9.40;;;5.93;;
22034;SDS011;11181;51.002;4.356;2023-02-28T04:21:45;11.47;;;6.27;;
22034;SDS011;11181;51.002;4.356;2023-02-28T04:24:15;8.53;;;6.10;;
22034;SDS011;11181;51.002;4.356;2023-02-28T04:26:44;8.50;;;6.57;;
22034;SDS011;11181;51.002;4.356;2023-02-28T04:29:13;10.13;;;6.63;;
22034;SDS011;11181;51.002;4.356;2023-02-28T04:31:43;8.23;;;6.13;;
22034;SDS011;11181;51.002;4.356;2023-02-28T04:34:10;9.30;;;6.20;;
22034;SDS011;11181;51.002;4.356;2023-02-28T04:36:37;12.20;;;6.73;;
22034;SDS011;11181;51.002;4.356;2023-02-28T04:39:04;11.10;;;6.40;;
22034;SDS011;11181;51.002;4.356;2023-02-28T04:41:32;6.17;;;5.27;;
22034;SDS011;11181;51.002;4.356;2023-02-28T04:43:59;11.53;;;5.93;;
22034;SDS011;11181;51.002;4.356;2023-02-28T04:46:26;8.13;;;5.80;;
22034;SDS011;11181;51.002;4.356;2023-02-28T04:48:53;9.33;;;6.23;;
22034;SDS011;11181;51.002;4.356;2023-02-28T04:51:20;11.10;;;7.03;;
22034;SDS011;11181;51.002;4.356;2023-02-28T04:53:47;8.43;;;5.77;;
22034;SDS011;11181;51.002;4.356;2023-02-28T04:56:16;9.20;;;6.60;;
22034;SDS011;11181;51.002;4.356;2023-02-28T04:58:45;12.40;;;6.30;;
22034;SDS011;11181;51.002;4.356;2023-02-28T05:01:17;11.97;;;6.37;;
22034;SDS011;11181;51.002;4.356;2023-02-28T05:03:47;8.13;;;5.50;;
22034;SDS011;11181;51.002;4.356;2023-02-28T05:06:15;9.60;;;5.83;;
22034;SDS011;11181;51.002;4.356;2023-02-28T05:08:43;10.67;;;6.33;;
22034;SDS011;11181;51.002;4.356;2023-02-28T05:11:13;8.77;;;5.93;;
22034;SDS011;11181;51.002;4.356;2023-02-28T05:13:42;15.40;;;6.47;;
22034;SDS011;11181;51.002;4.356;2023-02-28T05:16:10;7.77;;;5.93;;
22034;SDS011;11181;51.002;4.356;2023-02-28T05:18:37;9.13;;;5.93;;
22034;SDS011;11181;51.002;4.356;2023-02-28T05:21:05;8.50;;;6.03;;
22034;SDS011;11181;51.002;4.356;2023-02-28T05:23:32;8.03;;;5.93;;
22034;SDS011;11181;51.002;4.356;2023-02-28T05:25:59;8.40;;;5.53;;
22034;SDS011;11181;51.002;4.356;2023-02-28T05:28:26;10.63;;;6.97;;
22034;SDS011;11181;51.002;4.356;2023-02-28T05:30:53;10.83;;;6.43;;
22034;SDS011;11181;51.002;4.356;2023-02-28T05:33:21;9.07;;;5.90;;
22034;SDS011;11181;51.002;4.356;2023-02-28T05:35:48;8.03;;;6.63;;
22034;SDS011;11181;51.002;4.356;2023-02-28T05:38:15;10.53;;;5.70;;
22034;SDS011;11181;51.002;4.356;2023-02-28T05:40:42;9.83;;;5.80;;
22034;SDS011;11181;51.002;4.356;2023-02-28T05:43:10;10.23;;;5.83;;
22034;SDS011;11181;51.002;4.356;2023-02-28T05:45:37;10.13;;;6.00;;
22034;SDS011;11181;51.002;4.356;2023-02-28T05:48:04;11.30;;;6.10;;
22034;SDS011;11181;51.002;4.356;2023-02-28T05:50:33;14.60;;;6.23;;
22034;SDS011;11181;51.002;4.356;2023-02-28T05:53:00;12.50;;;6.97;;
22034;SDS011;11181;51.002;4.356;2023-02-28T05:55:27;13.67;;;6.63;;
22034;SDS011;11181;51.002;4.356;2023-02-28T05:57:54;10.07;;;6.33;;
22034;SDS011;11181;51.002;4.356;2023-02-28T06:00:21;8.27;;;5.80;;
22034;SDS011;11181;51.002;4.356;2023-02-28T06:02:48;9.33;;;5.70;;
22034;SDS011;11181;51.002;4.356;2023-02-28T06:05:17;7.00;;;5.87;;
22034;SDS011;11181;51.002;4.356;2023-02-28T06:07:46;7.60;;;5.50;;
22034;SDS011;11181;51.002;4.356;2023-02-28T06:10:13;5.80;;;4.73;;
22034;SDS011;11181;51.002;4.356;2023-02-28T06:12:40;10.97;;;6.30;;
22034;SDS011;11181;51.002;4.356;2023-02-28T06:15:09;8.57;;;6.07;;
22034;SDS011;11181;51.002;4.356;2023-02-28T06:17:39;12.43;;;5.80;;
22034;SDS011;11181;51.002;4.356;2023-02-28T06:20:07;10.87;;;6.10;;
22034;SDS011;11181;51.002;4.356;2023-02-28T06:22:35;13.20;;;6.00;;
22034;SDS011;11181;51.002;4.356;2023-02-28T06:25:05;9.03;;;5.37;;
22034;SDS011;11181;51.002;4.356;2023-02-28T06:27:33;9.83;;;4.57;;
22034;SDS011;11181;51.002;4.356;2023-02-28T06:30:00;5.13;;;4.47;;
22034;SDS011;11181;51.002;4.356;2023-02-28T06:32:28;11.37;;;6.07;;
22034;SDS011;11181;51.002;4.356;2023-02-28T06:34:55;7.97;;;5.43;;
22034;SDS011;11181;51.002;4.356;2023-02-28T06:37:23;10.43;;;6.47;;
22034;SDS011;11181;51.002;4.356;2023-02-28T06:39:51;8.40;;;5.47;;
22034;SDS011;11181;51.002;4.356;2023-02-28T06:42:19;9.40;;;5.87;;
22034;SDS011;11181;51.002;4.356;2023-02-28T06:44:47;6.63;;;5.27;;
22034;SDS011;11181;51.002;4.356;2023-02-28T06:47:13;10.80;;;5.70;;
22034;SDS011;11181;51.002;4.356;2023-02-28T06:49:40;8.43;;;6.10;;
22034;SDS011;11181;51.002;4.356;2023-02-28T06:52:07;11.33;;;5.90;;
22034;SDS011;11181;51.002;4.356;2023-02-28T06:54:35;11.73;;;6.83;;
22034;SDS011;11181;51.002;4.356;2023-02-28T06:57:03;10.67;;;6.93;;
22034;SDS011;11181;51.002;4.356;2023-02-28T06:59:31;9.90;;;6.27;;
22034;SDS011;11181;51.002;4.356;2023-02-28T07:01:58;8.33;;;6.07;;
22034;SDS011;11181;51.002;4.356;2023-02-28T07:04:25;9.90;;;6.37;;
22034;SDS011;11181;51.002;4.356;2023-02-28T07:06:52;10.10;;;6.33;;
22034;SDS011;11181;51.002;4.356;2023-02-28T07:09:21;10.40;;;6.13;;
22034;SDS011;11181;51.002;4.356;2023-02-28T07:11:48;9.63;;;6.07;;
22034;SDS011;11181;51.002;4.356;2023-02-28T07:14:15;8.77;;;6.40;;
22034;SDS011;11181;51.002;4.356;2023-02-28T07:16:43;8.77;;;6.27;;
22034;SDS011;11181;51.002;4.356;2023-02-28T07:19:10;9.33;;;6.33;;
22034;SDS011;11181;51.002;4.356;2023-02-28T07:21:37;9.90;;;6.20;;
22034;SDS011;11181;51.002;4.356;2023-02-28T07:24:04;11.57;;;6.57;;
22034;SDS011;11181;51.002;4.356;2023-02-28T07:26:32;8.43;;;5.30;;
22034;SDS011;11181;51.002;4.356;2023-02-28T07:29:00;9.63;;;6.40;;
22034;SDS011;11181;51.002;4.356;2023-02-28T07:31:27;8.03;;;5.70;;
22034;SDS011;11181;51.002;4.356;2023-02-28T07:33:55;7.77;;;5.90;;
22034;SDS011;11181;51.002;4.356;2023-02-28T07:36:22;9.30;;;5.87;;
22034;SDS011;11181;51.002;4.356;2023-02-28T07:38:49;7.60;;;5.37;;
22034;SDS011;11181;51.002;4.356;2023-02-28T07:41:16;9.43;;;5.83;;
22034;SDS011;11181;51.002;4.356;2023-02-28T07:43:44;7.83;;;6.07;;
22034;SDS011;11181;51.002;4.356;2023-02-28T07:46:13;9.27;;;5.80;;
22034;SDS011;11181;51.002;4.356;2023-02-28T07:48:41;6.97;;;5.40;;
22034;SDS011;11181;51.002;4.356;2023-02-28T07:51:10;10.83;;;5.87;;
22034;SDS011;11181;51.002;4.356;2023-02-28T07:53:37;7.33;;;5.47;;
22034;SDS011;11181;51.002;4.356;2023-02-28T07:56:04;13.90;;;5.90;;
22034;SDS011;11181;51.002;4.356;2023-02-28T07:58:32;8.57;;;4.97;;
22034;SDS011;11181;51.002;4.356;2023-02-28T08:01:04;9.07;;;4.53;;
22034;SDS011;11181;51.002;4.356;2023-02-28T08:03:32;7.23;;;4.97;;
22034;SDS011;11181;51.002;4.356;2023-02-28T08:05:59;9.20;;;4.73;;
22034;SDS011;11181;51.002;4.356;2023-02-28T08:08:28;6.33;;;4.27;;
22034;SDS011;11181;51.002;4.356;2023-02-28T08:10:57;8.37;;;4.47;;
22034;SDS011;11181;51.002;4.356;2023-02-28T08:13:25;7.10;;;3.80;;
22034;SDS011;11181;51.002;4.356;2023-02-28T08:15:53;6.30;;;3.87;;
22034;SDS011;11181;51.002;4.356;2023-02-28T08:18:20;5.80;;;3.93;;
22034;SDS011;11181;51.002;4.356;2023-02-28T08:20:47;6.97;;;3.43;;
22034;SDS011;11181;51.002;4.356;2023-02-28T08:23:14;6.60;;;3.30;;
22034;SDS011;11181;51.002;4.356;2023-02-28T08:25:43;4.00;;;3.03;;
22034;SDS011;11181;51.002;4.356;2023-02-28T08:28:10;3.43;;;2.90;;
22034;SDS011;11181;51.002;4.356;2023-02-28T08:30:36;3.87;;;2.80;;
22034;SDS011;11181;51.002;4.356;2023-02-28T08:33:06;8.30;;;2.83;;
22034;SDS011;11181;51.002;4.356;2023-02-28T08:35:35;3.67;;;2.30;;
22034;SDS011;11181;51.002;4.356;2023-02-28T08:38:02;6.20;;;2.57;;
22034;SDS011;11181;51.002;4.356;2023-02-28T08:40:29;4.43;;;2.83;;
22034;SDS011;11181;51.002;4.356;2023-02-28T08:42:57;6.63;;;3.27;;
22034;SDS011;11181;51.002;4.356;2023-02-28T08:45:24;3.60;;;2.90;;
22034;SDS011;11181;51.002;4.356;2023-02-28T08:47:52;6.33;;;3.10;;
22034;SDS011;11181;51.002;4.356;2023-02-28T08:50:20;4.10;;;2.93;;
22034;SDS011;11181;51.002;4.356;2023-02-28T08:52:47;5.87;;;3.03;;
22034;SDS011;11181;51.002;4.356;2023-02-28T08:55:14;8.70;;;3.67;;
22034;SDS011;11181;51.002;4.356;2023-02-28T08:57:41;2.87;;;2.50;;
22034;SDS011;11181;51.002;4.356;2023-02-28T09:00:10;5.33;;;2.30;;
22034;SDS011;11181;51.002;4.356;2023-02-28T09:02:38;5.17;;;2.37;;
22034;SDS011;11181;51.002;4.356;2023-02-28T09:05:06;5.10;;;2.40;;
22034;SDS011;11181;51.002;4.356;2023-02-28T09:07:34;3.90;;;2.33;;
22034;SDS011;11181;51.002;4.356;2023-02-28T09:10:01;5.17;;;2.53;;
22034;SDS011;11181;51.002;4.356;2023-02-28T09:12:28;4.03;;;2.73;;
22034;SDS011;11181;51.002;4.356;2023-02-28T09:15:00;4.30;;;2.40;;
22034;SDS011;11181;51.002;4.356;2023-02-28T09:17:28;4.73;;;2.83;;
22034;SDS011;11181;51.002;4.356;2023-02-28T09:19:55;3.87;;;2.60;;
22034;SDS011;11181;51.002;4.356;2023-02-28T09:22:25;3.97;;;2.20;;
22034;SDS011;11181;51.002;4.356;2023-02-28T09:24:51;2.77;;;2.17;;
22034;SDS011;11181;51.002;4.356;2023-02-28T09:27:18;5.07;;;2.03;;
22034;SDS011;11181;51.002;4.356;2023-02-28T09:29:46;3.97;;;1.97;;
22034;SDS011;11181;51.002;4.356;2023-02-28T09:32:12;3.03;;;1.70;;
22034;SDS011;11181;51.002;4.356;2023-02-28T09:34:41;5.90;;;2.33;;
22034;SDS011;11181;51.002;4.356;2023-02-28T09:37:08;2.97;;;2.10;;
22034;SDS011;11181;51.002;4.356;2023-02-28T09:39:34;3.37;;;1.83;;
22034;SDS011;11181;51.002;4.356;2023-02-28T09:42:02;2.83;;;1.70;;
22034;SDS011;11181;51.002;4.356;2023-02-28T09:44:31;2.33;;;2.10;;
22034;SDS011;11181;51.002;4.356;2023-02-28T09:47:05;2.60;;;2.00;;
22034;SDS011;11181;51.002;4.356;2023-02-28T09:49:38;3.20;;;1.70;;
22034;SDS011;11181;51.002;4.356;2023-02-28T09:52:12;3.43;;;1.63;;
22034;SDS011;11181;51.002;4.356;2023-02-28T09:54:44;1.97;;;1.70;;
22034;SDS011;11181;51.002;4.356;2023-02-28T09:57:14;2.67;;;1.60;;
22034;SDS011;11181;51.002;4.356;2023-02-28T09:59:50;2.37;;;1.80;;
22034;SDS011;11181;51.002;4.356;2023-02-28T10:02:34;2.67;;;2.00;;
22034;SDS011;11181;51.002;4.356;2023-02-28T10:05:13;2.33;;;1.73;;
22034;SDS011;11181;51.002;4.356;2023-02-28T10:07:47;4.30;;;2.17;;
22034;SDS011;11181;51.002;4.356;2023-02-28T10:10:21;1.83;;;1.57;;
22034;SDS011;11181;51.002;4.356;2023-02-28T10:12:53;3.17;;;1.83;;
22034;SDS011;11181;51.002;4.356;2023-02-28T10:15:22;2.03;;;1.87;;
22034;SDS011;11181;51.002;4.356;2023-02-28T10:17:53;5.93;;;2.47;;
22034;SDS011;11181;51.002;4.356;2023-02-28T10:20:24;2.17;;;1.60;;
22034;SDS011;11181;51.002;4.356;2023-02-28T10:22:57;2.33;;;1.80;;
22034;SDS011;11181;51.002;4.356;2023-02-28T10:25:32;2.53;;;1.77;;
22034;SDS011;11181;51.002;4.356;2023-02-28T10:28:00;2.63;;;1.97;;
22034;SDS011;11181;51.002;4.356;2023-02-28T10:30:34;2.20;;;1.70;;
22034;SDS011;11181;51.002;4.356;2023-02-28T10:33:02;2.00;;;1.80;;
22034;SDS011;11181;51.002;4.356;2023-02-28T10:35:31;4.93;;;1.73;;
22034;SDS011;11181;51.002;4.356;2023-02-28T10:37:59;2.63;;;1.30;;
22034;SDS011;11181;51.002;4.356;2023-02-28T10:40:36;1.53;;;1.27;;
22034;SDS011;11181;51.002;4.356;2023-02-28T10:43:04;1.47;;;1.37;;
22034;SDS011;11181;51.002;4.356;2023-02-28T10:45:51;1.93;;;1.23;;
22034;SDS011;11181;51.002;4.356;2023-02-28T10:48:35;2.70;;;1.23;;
22034;SDS011;11181;51.002;4.356;2023-02-28T10:51:07;2.37;;;1.53;;
22034;SDS011;11181;51.002;4.356;2023-02-28T10:53:38;2.13;;;1.47;;
22034;SDS011;11181;51.002;4.356;2023-02-28T10:56:15;3.17;;;2.00;;
22034;SDS011;11181;51.002;4.356;2023-02-28T10:58:53;2.80;;;1.83;;
22034;SDS011;11181;51.002;4.356;2023-02-28T11:01:22;1.70;;;1.40;;
22034;SDS011;11181;51.002;4.356;2023-02-28T11:03:51;1.83;;;1.60;;
22034;SDS011;11181;51.002;4.356;2023-02-28T11:06:21;1.67;;;1.30;;
22034;SDS011;11181;51.002;4.356;2023-02-28T11:08:51;1.70;;;1.50;;
22034;SDS011;11181;51.002;4.356;2023-02-28T11:11:20;2.30;;;1.83;;
22034;SDS011;11181;51.002;4.356;2023-02-28T11:13:50;3.37;;;1.40;;
22034;SDS011;11181;51.002;4.356;2023-02-28T11:16:19;3.17;;;1.73;;
22034;SDS011;11181;51.002;4.356;2023-02-28T11:18:48;6.73;;;1.83;;
22034;SDS011;11181;51.002;4.356;2023-02-28T11:21:18;3.37;;;1.40;;
22034;SDS011;11181;51.002;4.356;2023-02-28T11:23:51;3.13;;;1.47;;
22034;SDS011;11181;51.002;4.356;2023-02-28T11:26:36;2.37;;;1.50;;
22034;SDS011;11181;51.002;4.356;2023-02-28T11:29:12;2.60;;;1.37;;
22034;SDS011;11181;51.002;4.356;2023-02-28T11:31:49;2.27;;;1.43;;
22034;SDS011;11181;51.002;4.356;2023-02-28T11:34:29;1.60;;;1.50;;
22034;SDS011;11181;51.002;4.356;2023-02-28T11:36:58;2.90;;;1.90;;
22034;SDS011;11181;51.002;4.356;2023-02-28T11:39:30;3.43;;;1.47;;
22034;SDS011;11181;51.002;4.356;2023-02-28T11:42:01;1.47;;;1.33;;
22034;SDS011;11181;51.002;4.356;2023-02-28T11:44:48;1.93;;;1.63;;
22034;SDS011;11181;51.002;4.356;2023-02-28T11:47:27;3.30;;;1.53;;
22034;SDS011;11181;51.002;4.356;2023-02-28T11:50:12;3.13;;;1.63;;
22034;SDS011;11181;51.002;4.356;2023-02-28T11:52:50;3.13;;;1.50;;
22034;SDS011;11181;51.002;4.356;2023-02-28T11:55:21;5.47;;;2.00;;
22034;SDS011;11181;51.002;4.356;2023-02-28T11:58:04;1.73;;;1.50;;
22034;SDS011;11181;51.002;4.356;2023-02-28T12:00:52;2.53;;;1.57;;
22034;SDS011;11181;51.002;4.356;2023-02-28T12:03:29;2.97;;;1.97;;
22034;SDS011;11181;51.002;4.356;2023-02-28T12:06:05;2.87;;;1.60;;
22034;SDS011;11181;51.002;4.356;2023-02-28T12:08:44;2.00;;;1.70;;
22034;SDS011;11181;51.002;4.356;2023-02-28T12:11:24;2.33;;;1.70;;
22034;SDS011;11181;51.002;4.356;2023-02-28T12:14:00;1.70;;;1.50;;
22034;SDS011;11181;51.002;4.356;2023-02-28T12:16:58;2.77;;;1.67;;
22034;SDS011;11181;51.002;4.356;2023-02-28T12:19:39;3.40;;;1.53;;
22034;SDS011;11181;51.002;4.356;2023-02-28T12:22:19;2.30;;;1.77;;
22034;SDS011;11181;51.002;4.356;2023-02-28T12:28:02;1.80;;;1.40;;
22034;SDS011;11181;51.002;4.356;2023-02-28T12:30:31;2.30;;;1.50;;
22034;SDS011;11181;51.002;4.356;2023-02-28T12:33:02;2.47;;;1.53;;
22034;SDS011;11181;51.002;4.356;2023-02-28T12:35:32;1.87;;;1.37;;
22034;SDS011;11181;51.002;4.356;2023-02-28T12:38:04;2.07;;;1.43;;
22034;SDS011;11181;51.002;4.356;2023-02-28T12:40:41;2.40;;;1.40;;
22034;SDS011;11181;51.002;4.356;2023-02-28T12:43:14;1.80;;;1.20;;
22034;SDS011;11181;51.002;4.356;2023-02-28T12:45:44;4.10;;;1.83;;
22034;SDS011;11181;51.002;4.356;2023-02-28T12:48:15;2.43;;;1.90;;
22034;SDS011;11181;51.002;4.356;2023-02-28T12:50:48;2.57;;;1.83;;
22034;SDS011;11181;51.002;4.356;2023-02-28T12:53:17;2.90;;;1.40;;
22034;SDS011;11181;51.002;4.356;2023-02-28T12:55:53;2.63;;;2.00;;
22034;SDS011;11181;51.002;4.356;2023-02-28T12:58:30;3.63;;;1.70;;
22034;SDS011;11181;51.002;4.356;2023-02-28T13:01:06;3.27;;;1.80;;
22034;SDS011;11181;51.002;4.356;2023-02-28T13:06:58;2.00;;;1.73;;
22034;SDS011;11181;51.002;4.356;2023-02-28T13:09:34;2.63;;;1.53;;
22034;SDS011;11181;51.002;4.356;2023-02-28T13:12:04;1.50;;;1.40;;
22034;SDS011;11181;51.002;4.356;2023-02-28T13:14:41;2.13;;;1.53;;
22034;SDS011;11181;51.002;4.356;2023-02-28T13:17:11;4.40;;;2.07;;
22034;SDS011;11181;51.002;4.356;2023-02-28T13:19:45;2.47;;;2.10;;
22034;SDS011;11181;51.002;4.356;2023-02-28T13:22:36;3.20;;;1.90;;
22034;SDS011;11181;51.002;4.356;2023-02-28T13:28:12;2.80;;;1.43;;
22034;SDS011;11181;51.002;4.356;2023-02-28T13:31:03;2.40;;;2.20;;
22034;SDS011;11181;51.002;4.356;2023-02-28T13:33:31;2.20;;;2.00;;
22034;SDS011;11181;51.002;4.356;2023-02-28T13:36:06;2.10;;;1.70;;
22034;SDS011;11181;51.002;4.356;2023-02-28T13:38:54;6.83;;;2.20;;
22034;SDS011;11181;51.002;4.356;2023-02-28T13:44:13;2.33;;;2.13;;
22034;SDS011;11181;51.002;4.356;2023-02-28T13:49:46;5.57;;;2.10;;
22034;SDS011;11181;51.002;4.356;2023-02-28T13:52:15;1.90;;;1.70;;
22034;SDS011;11181;51.002;4.356;2023-02-28T13:54:56;3.03;;;2.17;;
22034;SDS011;11181;51.002;4.356;2023-02-28T13:57:41;3.03;;;2.20;;
22034;SDS011;11181;51.002;4.356;2023-02-28T14:00:19;2.70;;;1.70;;
22034;SDS011;11181;51.002;4.356;2023-02-28T14:03:06;2.23;;;1.90;;
22034;SDS011;11181;51.002;4.356;2023-02-28T14:05:42;2.17;;;1.73;;
22034;SDS011;11181;51.002;4.356;2023-02-28T14:08:12;4.70;;;2.27;;
22034;SDS011;11181;51.002;4.356;2023-02-28T14:10:44;1.93;;;1.73;;
22034;SDS011;11181;51.002;4.356;2023-02-28T14:13:36;3.50;;;2.20;;
22034;SDS011;11181;51.002;4.356;2023-02-28T14:16:09;3.87;;;2.27;;
22034;SDS011;11181;51.002;4.356;2023-02-28T14:18:38;4.53;;;2.80;;
22034;SDS011;11181;51.002;4.356;2023-02-28T14:21:11;2.13;;;1.80;;
22034;SDS011;11181;51.002;4.356;2023-02-28T14:24:03;2.10;;;1.90;;
22034;SDS011;11181;51.002;4.356;2023-02-28T14:27:03;2.07;;;1.53;;
22034;SDS011;11181;51.002;4.356;2023-02-28T14:29:44;2.53;;;1.90;;
22034;SDS011;11181;51.002;4.356;2023-02-28T14:32:27;2.60;;;2.37;;
22034;SDS011;11181;51.002;4.356;2023-02-28T14:35:00;2.37;;;2.00;;
22034;SDS011;11181;51.002;4.356;2023-02-28T14:37:38;2.67;;;2.23;;
22034;SDS011;11181;51.002;4.356;2023-02-28T14:40:11;2.57;;;2.10;;
22034;SDS011;11181;51.002;4.356;2023-02-28T14:42:45;3.73;;;2.13;;
22034;SDS011;11181;51.002;4.356;2023-02-28T14:45:17;2.20;;;2.00;;
22034;SDS011;11181;51.002;4.356;2023-02-28T14:47:45;3.23;;;2.60;;
22034;SDS011;11181;51.002;4.356;2023-02-28T14:50:17;3.10;;;2.20;;
22034;SDS011;11181;51.002;4.356;2023-02-28T14:52:47;3.50;;;2.57;;
22034;SDS011;11181;51.002;4.356;2023-02-28T14:55:18;3.03;;;2.43;;
22034;SDS011;11181;51.002;4.356;2023-02-28T14:57:52;3.33;;;2.07;;
22034;SDS011;11181;51.002;4.356;2023-02-28T15:00:23;2.43;;;2.23;;
22034;SDS011;11181;51.002;4.356;2023-02-28T15:02:51;3.33;;;2.80;;
22034;SDS011;11181;51.002;4.356;2023-02-28T15:05:22;4.97;;;3.43;;
22034;SDS011;11181;51.002;4.356;2023-02-28T15:08:02;3.40;;;2.80;;
22034;SDS011;11181;51.002;4.356;2023-02-28T15:10:31;4.03;;;2.23;;
22034;SDS011;11181;51.002;4.356;2023-02-28T15:12:59;3.20;;;2.40;;
22034;SDS011;11181;51.002;4.356;2023-02-28T15:15:32;2.70;;;2.40;;
22034;SDS011;11181;51.002;4.356;2023-02-28T15:18:07;6.30;;;3.70;;
22034;SDS011;11181;51.002;4.356;2023-02-28T15:20:42;5.20;;;2.73;;
22034;SDS011;11181;51.002;4.356;2023-02-28T15:23:11;4.87;;;2.97;;
22034;SDS011;11181;51.002;4.356;2023-02-28T15:25:39;3.43;;;2.90;;
22034;SDS011;11181;51.002;4.356;2023-02-28T15:28:09;6.53;;;2.37;;
22034;SDS011;11181;51.002;4.356;2023-02-28T15:30:49;4.73;;;3.47;;
22034;SDS011;11181;51.002;4.356;2023-02-28T15:33:20;2.63;;;2.20;;